Tubul — A8VP8 — position and weather

sailwx.info

Track history (hours):
 
Tides and Currents Weather Stations Pressure Air Temp Water Temp Dewpoint Dewpoint Depression Visibility Wind Speed Wind Dir Waves Ship Positions

Tubul

Last reported at 2017-Jun-06 06:32 UTC. Time now 2017-Jun-28 17:40 UTC.
Position N 30°45' E 032°19'.
Warning: this ship's position is 22 days out of date.

Length 300 m; draft 11.4 m.

Type: Ship (hazmat cat A). MMSI: 636014647.

Date/timePositionNaut miles runAvg speedWind from/ knotsBaromVisibWave heightAir tempDewpointWater temp
2017-Jun-06 06:32N 30°45' E 032°19'0 8.5
2017-Jun-06 06:30N 30°45' E 032°19'4 8.6
2017-Jun-06 06:00N 30°49' E 032°19'4 8.7
2017-Jun-06 05:30N 30°54' E 032°19'5 8.7
2017-Jun-06 04:58N 30°58' E 032°19'9 8.7
2017-Jun-06 03:59N 31°07' E 032°18'6 6.9
2017-Jun-06 03:05N 31°13' E 032°18'1 0.6
2017-Jun-06 00:59N 31°14' E 032°18'0 0.0
2017-Jun-05 21:56N 31°14' E 032°18'0 0.0
2017-Jun-05 21:29N 31°14' E 032°18'0 0.0
2017-Jun-05 20:56N 31°14' E 032°18'0 0.0
2017-Jun-05 20:29N 31°14' E 032°18'0 0.0
2017-Jun-05 19:56N 31°14' E 032°18'0 0.0
2017-Jun-05 18:29N 31°14' E 032°18'0 0.0
2017-Jun-05 17:56N 31°14' E 032°18'0 0.0
2017-Jun-05 16:08N 31°14' E 032°18'0 0.0
2017-Jun-05 15:59N 31°14' E 032°18'0 0.0
2017-Jun-05 13:50N 31°14' E 032°18'0 0.0
2017-Jun-05 13:26N 31°14' E 032°18'0 0.0
2017-Jun-05 11:11N 31°14' E 032°18'0 0.0
2017-Jun-05 10:59N 31°14' E 032°18'17 2.7
2017-Jun-05 04:50N 31°31' E 032°16'3 9.8
2017-Jun-05 04:30N 31°32' E 032°12'713.8
2017-Jun-05 04:00N 31°37' E 032°07'1213.8
2017-Jun-05 03:07N 31°45' E 031°56'213.5
2017-Jun-05 03:00N 31°46' E 031°55'5718.5
2017-Jun-04 23:56N 32°24' E 031°05'15118.5
2017-Jun-04 15:47N 33°02' E 028°11'8219.5
2017-Jun-04 11:34N 33°20' E 026°36'320.2
2017-Jun-04 11:26N 33°21' E 026°33'920.2
2017-Jun-04 11:00N 33°23' E 026°22'1020.0
2017-Jun-04 10:30N 33°25' E 026°11'14017.2
2017-Jun-04 02:21N 33°60' E 023°27'718.9
2017-Jun-04 02:00N 34°01' E 023°19'1119.0
2017-Jun-04 01:25N 34°04' E 023°06'819.1
2017-Jun-04 01:00N 34°06' E 022°57'919.1
2017-Jun-04 00:30N 34°08' E 022°46'1019.1
2017-Jun-04 00:00N 34°10' E 022°35'1019.4
2017-Jun-03 23:30N 34°12' E 022°23'1019.5
2017-Jun-03 23:00N 34°15' E 022°12'2519.3
2017-Jun-03 21:43N 34°21' E 021°42'419.0
2017-Jun-03 21:29N 34°22' E 021°38'919.2
2017-Jun-03 21:00N 34°24' E 021°27'918.8
2017-Jun-03 20:30N 34°26' E 021°16'1018.8
2017-Jun-03 20:00N 34°29' E 021°04'918.8
2017-Jun-03 19:30N 34°31' E 020°53'1019.3
2017-Jun-03 18:59N 34°33' E 020°42'1019.7
2017-Jun-03 18:30N 34°35' E 020°30'1419.9
2017-Jun-03 17:47N 34°39' E 020°14'620.1
2017-Jun-03 17:30N 34°41' E 020°07'1120.0
2017-Jun-03 16:58N 34°43' E 019°54'919.4
2017-Jun-03 16:30N 34°45' E 019°44'4819.0
2017-Jun-03 13:59N 34°57' E 018°47'8818.2
2017-Jun-03 09:08N 35°18' E 017°02'319.6
2017-Jun-03 09:00N 35°19' E 016°59'1619.8
2017-Jun-03 08:12N 35°22' E 016°41'419.7
2017-Jun-03 08:00N 35°23' E 016°36'1019.4
2017-Jun-03 07:30N 35°25' E 016°24'1019.3
2017-Jun-03 07:00N 35°28' E 016°13'1019.8
2017-Jun-03 06:30N 35°30' E 016°01'1020.1
2017-Jun-03 06:00N 35°33' E 015°49'1020.4
2017-Jun-03 05:30N 35°35' E 015°37'1120.3
2017-Jun-03 04:59N 35°37' E 015°24'919.9
2017-Jun-03 04:30N 35°41' E 015°13'1019.9
2017-Jun-03 04:00N 35°43' E 015°01'1019.9
2017-Jun-03 03:30N 35°45' E 014°49'1019.6
2017-Jun-03 03:00N 35°47' E 014°38'5 9.9
2017-Jun-03 02:30N 35°49' E 014°32'0 0.8
2017-Jun-03 02:00N 35°49' E 014°33'0 0.0
2017-Jun-03 01:15N 35°49' E 014°33'0 0.0
2017-Jun-03 01:00N 35°49' E 014°33'0 0.0
2017-Jun-03 00:30N 35°49' E 014°33'0 0.0
2017-Jun-03 00:00N 35°49' E 014°33'0 0.0
2017-Jun-02 23:30N 35°49' E 014°33'0 0.0
2017-Jun-02 23:00N 35°49' E 014°33'0 0.0
2017-Jun-02 22:30N 35°49' E 014°33'0 0.0
2017-Jun-02 22:00N 35°49' E 014°33'0 0.0
2017-Jun-02 21:30N 35°49' E 014°33'0 0.0
2017-Jun-02 20:57N 35°49' E 014°33'0 0.0
2017-Jun-02 20:21N 35°49' E 014°33'0 0.0
2017-Jun-02 20:00N 35°49' E 014°33'0 0.0
2017-Jun-02 16:57N 35°49' E 014°33'0 0.0
2017-Jun-02 13:57N 35°49' E 014°33'0 0.0
2017-Jun-02 13:30N 35°49' E 014°33'1 1.2
2017-Jun-02 13:00N 35°49' E 014°33'3 6.2
2017-Jun-02 12:30N 35°47' E 014°36'3 5.2
2017-Jun-02 12:00N 35°44' E 014°37'1 1.7
2017-Jun-02 11:31N 35°43' E 014°37'0 0.5
2017-Jun-02 11:01N 35°43' E 014°36'0 0.4
2017-Jun-02 10:31N 35°43' E 014°36'0 0.4
2017-Jun-02 10:00N 35°43' E 014°36'0 0.4
2017-Jun-02 09:30N 35°43' E 014°36'0 0.5
2017-Jun-02 09:00N 35°43' E 014°35'0 0.4
2017-Jun-02 08:30N 35°43' E 014°35'0 0.3
2017-Jun-02 08:00N 35°43' E 014°35'0 0.4
2017-Jun-02 07:30N 35°44' E 014°35'0 0.2
2017-Jun-02 07:00N 35°44' E 014°35'0 0.2
2017-Jun-02 06:31N 35°44' E 014°34'0 0.2
2017-Jun-02 06:00N 35°43' E 014°34'0 0.2
2017-Jun-02 05:30N 35°43' E 014°34'0 0.2
2017-Jun-02 05:00N 35°43' E 014°34'0 0.3
2017-Jun-02 04:31N 35°43' E 014°34'0 0.3
2017-Jun-02 04:01N 35°43' E 014°34'0 0.4
2017-Jun-02 03:30N 35°43' E 014°34'4 8.7
2017-Jun-02 03:00N 35°42' E 014°29'510.3
2017-Jun-02 02:30N 35°43' E 014°22'613.0
2017-Jun-02 02:00N 35°47' E 014°16'612.8
2017-Jun-02 01:30N 35°51' E 014°10'612.4
2017-Jun-02 01:00N 35°55' E 014°04'612.5
2017-Jun-02 00:30N 35°60' E 013°60'612.4
2017-Jun-02 00:00N 36°05' E 013°55'612.4
2017-Jun-01 23:30N 36°09' E 013°49'612.6
2017-Jun-01 23:00N 36°13' E 013°44'612.6
2017-Jun-01 22:30N 36°18' E 013°38'612.5
2017-Jun-01 22:00N 36°23' E 013°33'713.8
2017-Jun-01 21:31N 36°28' E 013°27'713.7
2017-Jun-01 21:00N 36°32' E 013°21'713.6
2017-Jun-01 20:30N 36°37' E 013°15'713.7
2017-Jun-01 20:01N 36°42' E 013°09'713.6
2017-Jun-01 19:30N 36°47' E 013°03'713.7
2017-Jun-01 19:00N 36°52' E 012°57'713.9
2017-Jun-01 18:30N 36°55' E 012°50'714.0
2017-Jun-01 18:00N 37°00' E 012°43'714.0
2017-Jun-01 17:30N 37°06' E 012°38'714.2
2017-Jun-01 17:00N 37°11' E 012°32'714.7
2017-Jun-01 16:30N 37°16' E 012°25'714.6
2017-Jun-01 16:00N 37°21' E 012°19'714.3
2017-Jun-01 15:30N 37°26' E 012°12'714.1
2017-Jun-01 15:00N 37°32' E 012°07'714.1
2017-Jun-01 14:30N 37°37' E 012°01'1514.8
2017-Jun-01 13:30N 37°48' E 011°48'815.5
2017-Jun-01 13:00N 37°53' E 011°41'815.7
2017-Jun-01 12:30N 38°01' E 011°38'714.9
2017-Jun-01 12:00N 38°08' E 011°36'714.5
2017-Jun-01 11:30N 38°15' E 011°33'714.4
2017-Jun-01 11:00N 38°22' E 011°30'714.0
2017-Jun-01 10:30N 38°29' E 011°28'813.9
2017-Jun-01 09:57N 38°36' E 011°24'713.7
2017-Jun-01 09:28N 38°42' E 011°22'1114.6
2017-Jun-01 08:42N 38°53' E 011°17'314.9
2017-Jun-01 08:30N 38°56' E 011°16'814.6
2017-Jun-01 07:56N 39°03' E 011°13'918.7
2017-Jun-01 07:27N 39°12' E 011°09'1017.5
2017-Jun-01 06:53N 39°21' E 011°05'615.1
2017-Jun-01 06:28N 39°27' E 011°03'715.1
2017-Jun-01 06:00N 39°34' E 010°60'815.3
2017-Jun-01 05:30N 39°41' E 010°57'815.7
2017-Jun-01 05:00N 39°49' E 010°54'815.6
2017-Jun-01 04:28N 39°57' E 010°50'815.5
2017-Jun-01 03:58N 40°04' E 010°47'815.4
2017-Jun-01 03:29N 40°11' E 010°44'815.6
2017-Jun-01 03:00N 40°19' E 010°42'815.5
2017-Jun-01 02:30N 40°26' E 010°39'815.2
2017-Jun-01 02:00N 40°33' E 010°36'815.1
2017-Jun-01 01:30N 40°40' E 010°33'815.1
2017-Jun-01 01:00N 40°48' E 010°30'915.1
2017-Jun-01 00:26N 40°56' E 010°26'615.0
2017-Jun-01 00:00N 41°02' E 010°24'714.9
2017-May-31 23:30N 41°09' E 010°21'815.0
2017-May-31 22:59N 41°16' E 010°18'715.1
2017-May-31 22:31N 41°23' E 010°15'815.0
2017-May-31 22:00N 41°31' E 010°12'714.8
2017-May-31 21:30N 41°37' E 010°08'815.1
2017-May-31 21:00N 41°45' E 010°05'815.0
2017-May-31 20:29N 41°52' E 010°02'815.3
2017-May-31 19:57N 41°60' E 009°59'715.3
2017-May-31 19:29N 42°07' E 009°56'715.1
2017-May-31 19:00N 42°14' E 009°53'915.1
2017-May-31 18:23N 42°23' E 009°49'615.0
2017-May-31 18:01N 42°28' E 009°47'815.1
2017-May-31 17:29N 42°35' E 009°44'715.0
2017-May-31 17:00N 42°42' E 009°41'714.9
2017-May-31 16:30N 42°50' E 009°39'714.8
2017-May-31 16:00N 42°57' E 009°37'714.8
2017-May-31 15:30N 43°04' E 009°35'714.9
2017-May-31 15:00N 43°11' E 009°32'1414.5
2017-May-31 14:00N 43°25' E 009°26'713.9
2017-May-31 13:31N 43°32' E 009°23'714.7
2017-May-31 13:00N 43°38' E 009°19'5 9.2
2017-May-31 12:30N 43°43' E 009°17'1 1.1
2017-May-31 12:00N 43°42' E 009°17'1 2.7
2017-May-31 11:30N 43°44' E 009°17'713.7
2017-May-31 11:00N 43°50' E 009°15'714.9
2017-May-31 10:31N 43°57' E 009°11'714.8
2017-May-31 10:00N 44°04' E 009°07'714.9
2017-May-31 09:31N 44°11' E 009°02'714.8
2017-May-31 09:01N 44°18' E 008°59'510.5
2017-May-31 08:30N 44°23' E 008°57'2 4.3
2017-May-31 08:00N 44°24' E 008°55'0 0.0
2017-May-31 07:27N 44°24' E 008°55'0 0.0
2017-May-31 07:00N 44°24' E 008°55'0 0.0
2017-May-31 06:30N 44°24' E 008°55'0 0.0
2017-May-31 06:00N 44°24' E 008°55'0 0.0
2017-May-31 05:30N 44°24' E 008°55'0 0.0
2017-May-31 05:00N 44°24' E 008°55'0 0.0
2017-May-31 04:30N 44°24' E 008°55'0 0.0
2017-May-31 04:00N 44°24' E 008°55'0 0.0
2017-May-31 03:30N 44°24' E 008°55'0 0.0
2017-May-31 03:00N 44°24' E 008°55'0 0.0
2017-May-31 02:30N 44°24' E 008°55'0 0.0
2017-May-31 02:00N 44°24' E 008°55'0 0.0
2017-May-31 01:30N 44°24' E 008°55'0 0.0
2017-May-31 01:00N 44°24' E 008°55'0 0.0
2017-May-31 00:30N 44°24' E 008°55'0 0.0
2017-May-30 23:57N 44°24' E 008°55'0 0.0
2017-May-30 23:21N 44°24' E 008°55'0 0.0
2017-May-30 22:57N 44°24' E 008°55'0 0.0
2017-May-30 22:27N 44°24' E 008°55'0 0.0
2017-May-30 21:57N 44°24' E 008°55'0 0.0
2017-May-30 21:30N 44°24' E 008°55'0 0.0
2017-May-30 21:00N 44°24' E 008°55'0 0.0
2017-May-30 20:27N 44°24' E 008°55'0 0.0
2017-May-30 20:00N 44°24' E 008°55'0 0.0
2017-May-30 19:27N 44°24' E 008°55'0 0.0
2017-May-30 19:00N 44°24' E 008°55'0 0.0
2017-May-30 18:27N 44°24' E 008°55'0 0.0
2017-May-30 17:57N 44°24' E 008°55'0 0.0
2017-May-30 17:30N 44°24' E 008°55'0 0.0
2017-May-30 17:00N 44°24' E 008°55'0 0.0
2017-May-30 16:30N 44°24' E 008°55'0 0.0
2017-May-30 16:00N 44°24' E 008°55'0 0.0
2017-May-30 15:30N 44°24' E 008°55'0 0.0
2017-May-30 14:57N 44°24' E 008°55'0 0.0
2017-May-30 14:00N 44°24' E 008°55'0 0.0
2017-May-30 13:30N 44°24' E 008°55'0 0.0
2017-May-30 13:00N 44°24' E 008°55'0 0.0
2017-May-30 12:30N 44°24' E 008°55'0 0.0
2017-May-30 12:00N 44°24' E 008°55'0 0.0
2017-May-30 11:30N 44°24' E 008°55'0 0.0
2017-May-30 11:00N 44°24' E 008°55'0 0.0
2017-May-30 10:30N 44°24' E 008°55'0 0.0
2017-May-30 09:57N 44°24' E 008°55'0 0.0
2017-May-30 09:21N 44°24' E 008°55'0 0.0
2017-May-30 08:57N 44°24' E 008°55'0 0.0
2017-May-30 08:24N 44°24' E 008°55'0 0.0
2017-May-30 07:54N 44°24' E 008°55'0 0.0
2017-May-30 07:27N 44°24' E 008°55'0 0.0
2017-May-30 06:54N 44°24' E 008°55'0 0.0
2017-May-30 06:24N 44°24' E 008°55'0 0.0
2017-May-30 05:57N 44°24' E 008°55'0 0.0
2017-May-30 05:27N 44°24' E 008°55'0 0.0
2017-May-30 04:57N 44°24' E 008°55'0 0.0
2017-May-30 04:27N 44°24' E 008°55'0 0.0
2017-May-30 03:57N 44°24' E 008°55'0 0.7
2017-May-30 03:30N 44°24' E 008°55'3 6.6
2017-May-30 03:00N 44°22' E 008°58'4 8.6
2017-May-30 02:31N 44°17' E 008°59'815.2
2017-May-30 02:01N 44°13' E 008°50'815.1
2017-May-30 01:30N 44°07' E 008°43'714.1
2017-May-30 01:01N 44°01' E 008°40'714.2
2017-May-30 00:30N 43°54' E 008°42'714.0
2017-May-30 00:01N 43°48' E 008°38'714.1
2017-May-29 23:31N 43°42' E 008°32'714.4
2017-May-29 23:01N 43°36' E 008°26'714.3
2017-May-29 22:30N 43°30' E 008°21'714.3
2017-May-29 22:01N 43°24' E 008°15'714.4
2017-May-29 21:31N 43°18' E 008°09'714.1
2017-May-29 21:01N 43°13' E 008°02'714.1
2017-May-29 20:30N 43°09' E 007°55'714.2
2017-May-29 20:00N 43°05' E 007°47'714.5
2017-May-29 19:30N 43°00' E 007°39'714.6
2017-May-29 19:00N 42°56' E 007°31'714.4
2017-May-29 18:30N 42°52' E 007°23'714.5
2017-May-29 18:00N 42°47' E 007°15'714.6
2017-May-29 17:30N 42°43' E 007°08'714.5
2017-May-29 17:01N 42°38' E 007°00'714.3
2017-May-29 16:30N 42°33' E 006°53'714.2
2017-May-29 16:00N 42°29' E 006°45'1014.1
2017-May-29 15:17N 42°23' E 006°34'614.1
2017-May-29 14:53N 42°20' E 006°28'1314.4
2017-May-29 14:00N 42°12' E 006°14'815.5
2017-May-29 13:30N 42°07' E 006°06'815.4
2017-May-29 13:00N 42°03' E 005°57'815.3
2017-May-29 12:31N 41°58' E 005°49'714.8
2017-May-29 12:00N 41°53' E 005°42'713.3
2017-May-29 11:30N 41°49' E 005°35'713.3
2017-May-29 11:00N 41°45' E 005°28'713.1
2017-May-29 10:30N 41°41' E 005°20'612.9
2017-May-29 10:00N 41°37' E 005°14'713.1
2017-May-29 09:29N 41°33' E 005°06'1113.0
2017-May-29 08:41N 41°27' E 004°55'213.1
2017-May-29 08:30N 41°26' E 004°52'2512.8
2017-May-29 06:34N 41°11' E 004°26'112.9
2017-May-29 06:30N 41°10' E 004°25'712.8
2017-May-29 05:58N 41°06' E 004°18'612.9
2017-May-29 05:30N 41°02' E 004°12'912.1
2017-May-29 04:45N 40°57' E 004°02'713.1
2017-May-29 04:14N 40°53' E 003°55'315.6
2017-May-29 04:00N 40°50' E 003°52'1015.6
2017-May-29 03:21N 40°44' E 003°41'515.2
2017-May-29 03:00N 40°41' E 003°36'815.1
2017-May-29 02:30N 40°36' E 003°28'815.3
2017-May-29 02:01N 40°32' E 003°20'815.4
2017-May-29 01:31N 40°27' E 003°12'815.5
2017-May-29 01:00N 40°22' E 003°04'815.5
2017-May-29 00:30N 40°18' E 002°55'715.1
2017-May-29 00:00N 40°13' E 002°48'815.0
2017-May-28 23:30N 40°08' E 002°40'815.5
2017-May-28 23:00N 40°04' E 002°32'815.7
2017-May-28 22:30N 39°59' E 002°24'815.8
2017-May-28 22:00N 39°54' E 002°15'815.8
2017-May-28 21:31N 39°49' E 002°07'815.6
2017-May-28 21:00N 39°45' E 001°59'815.4
2017-May-28 20:30N 39°40' E 001°51'815.4
2017-May-28 20:00N 39°35' E 001°44'815.4
2017-May-28 19:30N 39°30' E 001°36'815.3
2017-May-28 19:00N 39°25' E 001°28'815.5
2017-May-28 18:30N 39°21' E 001°20'815.7
2017-May-28 18:00N 39°16' E 001°12'815.8
2017-May-28 17:30N 39°11' E 001°03'815.7
2017-May-28 16:58N 39°06' E 000°55'1915.3
2017-May-28 15:46N 38°53' E 000°39'415.1
2017-May-28 15:30N 38°50' E 000°35'5814.6
2017-May-28 11:33N 38°02' W 000°06'114.9
2017-May-28 11:30N 38°02' W 000°07'914.9
2017-May-28 10:54N 37°54' W 000°13'814.8
2017-May-28 10:21N 37°47' W 000°19'514.7
2017-May-28 10:00N 37°43' W 000°22'714.8
2017-May-28 09:30N 37°37' W 000°27'714.6
2017-May-28 09:00N 37°31' W 000°33'714.4
2017-May-28 08:30N 37°27' W 000°40'714.4
2017-May-28 08:00N 37°22' W 000°47'714.6
2017-May-28 07:30N 37°17' W 000°53'714.2
2017-May-28 07:00N 37°12' W 001°00'20714.3
2017-May-27 16:34N 36°01' W 005°02'516.8
2017-May-27 16:16N 36°01' W 005°08'416.9
2017-May-27 16:01N 36°00' W 005°13'816.6
2017-May-27 15:30N 35°58' W 005°23'7 9.4
2017-May-27 14:48N 35°54' W 005°30'  
Track history (hours):
 
Tides and Currents Weather Stations Pressure Air Temp Water Temp Dewpoint Dewpoint Depression Visibility Wind Speed Wind Dir Waves Ship Positions

Tubul

Last reported at 2017-Jun-06 06:32 UTC. Time now 2017-Jun-28 17:40 UTC.
Position N 30°45' E 032°19'.
Warning: this ship's position is 22 days out of date.

Length 300 m; draft 11.4 m.

Type: Ship (hazmat cat A). MMSI: 636014647.

Date/timePositionNaut miles runAvg speedWind from/ knotsBaromVisibWave heightAir tempDewpointWater temp
2017-Jun-06 06:32N 30°45' E 032°19'0 8.5
2017-Jun-06 06:30N 30°45' E 032°19'4 8.6
2017-Jun-06 06:00N 30°49' E 032°19'4 8.7
2017-Jun-06 05:30N 30°54' E 032°19'5 8.7
2017-Jun-06 04:58N 30°58' E 032°19'9 8.7
2017-Jun-06 03:59N 31°07' E 032°18'6 6.9
2017-Jun-06 03:05N 31°13' E 032°18'1 0.6
2017-Jun-06 00:59N 31°14' E 032°18'0 0.0
2017-Jun-05 21:56N 31°14' E 032°18'0 0.0
2017-Jun-05 21:29N 31°14' E 032°18'0 0.0
2017-Jun-05 20:56N 31°14' E 032°18'0 0.0
2017-Jun-05 20:29N 31°14' E 032°18'0 0.0
2017-Jun-05 19:56N 31°14' E 032°18'0 0.0
2017-Jun-05 18:29N 31°14' E 032°18'0 0.0
2017-Jun-05 17:56N 31°14' E 032°18'0 0.0
2017-Jun-05 16:08N 31°14' E 032°18'0 0.0
2017-Jun-05 15:59N 31°14' E 032°18'0 0.0
2017-Jun-05 13:50N 31°14' E 032°18'0 0.0
2017-Jun-05 13:26N 31°14' E 032°18'0 0.0
2017-Jun-05 11:11N 31°14' E 032°18'0 0.0
2017-Jun-05 10:59N 31°14' E 032°18'17 2.7
2017-Jun-05 04:50N 31°31' E 032°16'3 9.8
2017-Jun-05 04:30N 31°32' E 032°12'713.8
2017-Jun-05 04:00N 31°37' E 032°07'1213.8
2017-Jun-05 03:07N 31°45' E 031°56'213.5
2017-Jun-05 03:00N 31°46' E 031°55'5718.5
2017-Jun-04 23:56N 32°24' E 031°05'15118.5
2017-Jun-04 15:47N 33°02' E 028°11'8219.5
2017-Jun-04 11:34N 33°20' E 026°36'320.2
2017-Jun-04 11:26N 33°21' E 026°33'920.2
2017-Jun-04 11:00N 33°23' E 026°22'1020.0
2017-Jun-04 10:30N 33°25' E 026°11'14017.2
2017-Jun-04 02:21N 33°60' E 023°27'718.9
2017-Jun-04 02:00N 34°01' E 023°19'1119.0
2017-Jun-04 01:25N 34°04' E 023°06'819.1
2017-Jun-04 01:00N 34°06' E 022°57'919.1
2017-Jun-04 00:30N 34°08' E 022°46'1019.1
2017-Jun-04 00:00N 34°10' E 022°35'1019.4
2017-Jun-03 23:30N 34°12' E 022°23'1019.5
2017-Jun-03 23:00N 34°15' E 022°12'2519.3
2017-Jun-03 21:43N 34°21' E 021°42'419.0
2017-Jun-03 21:29N 34°22' E 021°38'919.2
2017-Jun-03 21:00N 34°24' E 021°27'918.8
2017-Jun-03 20:30N 34°26' E 021°16'1018.8
2017-Jun-03 20:00N 34°29' E 021°04'918.8
2017-Jun-03 19:30N 34°31' E 020°53'1019.3
2017-Jun-03 18:59N 34°33' E 020°42'1019.7
2017-Jun-03 18:30N 34°35' E 020°30'1419.9
2017-Jun-03 17:47N 34°39' E 020°14'620.1
2017-Jun-03 17:30N 34°41' E 020°07'1120.0
2017-Jun-03 16:58N 34°43' E 019°54'919.4
2017-Jun-03 16:30N 34°45' E 019°44'4819.0
2017-Jun-03 13:59N 34°57' E 018°47'8818.2
2017-Jun-03 09:08N 35°18' E 017°02'319.6
2017-Jun-03 09:00N 35°19' E 016°59'1619.8
2017-Jun-03 08:12N 35°22' E 016°41'419.7
2017-Jun-03 08:00N 35°23' E 016°36'1019.4
2017-Jun-03 07:30N 35°25' E 016°24'1019.3
2017-Jun-03 07:00N 35°28' E 016°13'1019.8
2017-Jun-03 06:30N 35°30' E 016°01'1020.1
2017-Jun-03 06:00N 35°33' E 015°49'1020.4
2017-Jun-03 05:30N 35°35' E 015°37'1120.3
2017-Jun-03 04:59N 35°37' E 015°24'919.9
2017-Jun-03 04:30N 35°41' E 015°13'1019.9
2017-Jun-03 04:00N 35°43' E 015°01'1019.9
2017-Jun-03 03:30N 35°45' E 014°49'1019.6
2017-Jun-03 03:00N 35°47' E 014°38'5 9.9
2017-Jun-03 02:30N 35°49' E 014°32'0 0.8
2017-Jun-03 02:00N 35°49' E 014°33'0 0.0
2017-Jun-03 01:15N 35°49' E 014°33'0 0.0
2017-Jun-03 01:00N 35°49' E 014°33'0 0.0
2017-Jun-03 00:30N 35°49' E 014°33'0 0.0
2017-Jun-03 00:00N 35°49' E 014°33'0 0.0
2017-Jun-02 23:30N 35°49' E 014°33'0 0.0
2017-Jun-02 23:00N 35°49' E 014°33'0 0.0
2017-Jun-02 22:30N 35°49' E 014°33'0 0.0
2017-Jun-02 22:00N 35°49' E 014°33'0 0.0
2017-Jun-02 21:30N 35°49' E 014°33'0 0.0
2017-Jun-02 20:57N 35°49' E 014°33'0 0.0
2017-Jun-02 20:21N 35°49' E 014°33'0 0.0
2017-Jun-02 20:00N 35°49' E 014°33'0 0.0
2017-Jun-02 16:57N 35°49' E 014°33'0 0.0
2017-Jun-02 13:57N 35°49' E 014°33'0 0.0
2017-Jun-02 13:30N 35°49' E 014°33'1 1.2
2017-Jun-02 13:00N 35°49' E 014°33'3 6.2
2017-Jun-02 12:30N 35°47' E 014°36'3 5.2
2017-Jun-02 12:00N 35°44' E 014°37'1 1.7
2017-Jun-02 11:31N 35°43' E 014°37'0 0.5
2017-Jun-02 11:01N 35°43' E 014°36'0 0.4
2017-Jun-02 10:31N 35°43' E 014°36'0 0.4
2017-Jun-02 10:00N 35°43' E 014°36'0 0.4
2017-Jun-02 09:30N 35°43' E 014°36'0 0.5
2017-Jun-02 09:00N 35°43' E 014°35'0 0.4
2017-Jun-02 08:30N 35°43' E 014°35'0 0.3
2017-Jun-02 08:00N 35°43' E 014°35'0 0.4
2017-Jun-02 07:30N 35°44' E 014°35'0 0.2
2017-Jun-02 07:00N 35°44' E 014°35'0 0.2
2017-Jun-02 06:31N 35°44' E 014°34'0 0.2
2017-Jun-02 06:00N 35°43' E 014°34'0 0.2
2017-Jun-02 05:30N 35°43' E 014°34'0 0.2
2017-Jun-02 05:00N 35°43' E 014°34'0 0.3
2017-Jun-02 04:31N 35°43' E 014°34'0 0.3
2017-Jun-02 04:01N 35°43' E 014°34'0 0.4
2017-Jun-02 03:30N 35°43' E 014°34'4 8.7
2017-Jun-02 03:00N 35°42' E 014°29'510.3
2017-Jun-02 02:30N 35°43' E 014°22'613.0
2017-Jun-02 02:00N 35°47' E 014°16'612.8
2017-Jun-02 01:30N 35°51' E 014°10'612.4
2017-Jun-02 01:00N 35°55' E 014°04'612.5
2017-Jun-02 00:30N 35°60' E 013°60'612.4
2017-Jun-02 00:00N 36°05' E 013°55'612.4
2017-Jun-01 23:30N 36°09' E 013°49'612.6
2017-Jun-01 23:00N 36°13' E 013°44'612.6
2017-Jun-01 22:30N 36°18' E 013°38'612.5
2017-Jun-01 22:00N 36°23' E 013°33'713.8
2017-Jun-01 21:31N 36°28' E 013°27'713.7
2017-Jun-01 21:00N 36°32' E 013°21'713.6
2017-Jun-01 20:30N 36°37' E 013°15'713.7
2017-Jun-01 20:01N 36°42' E 013°09'713.6
2017-Jun-01 19:30N 36°47' E 013°03'713.7
2017-Jun-01 19:00N 36°52' E 012°57'713.9
2017-Jun-01 18:30N 36°55' E 012°50'714.0
2017-Jun-01 18:00N 37°00' E 012°43'714.0
2017-Jun-01 17:30N 37°06' E 012°38'714.2
2017-Jun-01 17:00N 37°11' E 012°32'714.7
2017-Jun-01 16:30N 37°16' E 012°25'714.6
2017-Jun-01 16:00N 37°21' E 012°19'714.3
2017-Jun-01 15:30N 37°26' E 012°12'714.1
2017-Jun-01 15:00N 37°32' E 012°07'714.1
2017-Jun-01 14:30N 37°37' E 012°01'1514.8
2017-Jun-01 13:30N 37°48' E 011°48'815.5
2017-Jun-01 13:00N 37°53' E 011°41'815.7
2017-Jun-01 12:30N 38°01' E 011°38'714.9
2017-Jun-01 12:00N 38°08' E 011°36'714.5
2017-Jun-01 11:30N 38°15' E 011°33'714.4
2017-Jun-01 11:00N 38°22' E 011°30'714.0
2017-Jun-01 10:30N 38°29' E 011°28'813.9
2017-Jun-01 09:57N 38°36' E 011°24'713.7
2017-Jun-01 09:28N 38°42' E 011°22'1114.6
2017-Jun-01 08:42N 38°53' E 011°17'314.9
2017-Jun-01 08:30N 38°56' E 011°16'814.6
2017-Jun-01 07:56N 39°03' E 011°13'918.7
2017-Jun-01 07:27N 39°12' E 011°09'1017.5
2017-Jun-01 06:53N 39°21' E 011°05'615.1
2017-Jun-01 06:28N 39°27' E 011°03'715.1
2017-Jun-01 06:00N 39°34' E 010°60'815.3
2017-Jun-01 05:30N 39°41' E 010°57'815.7
2017-Jun-01 05:00N 39°49' E 010°54'815.6
2017-Jun-01 04:28N 39°57' E 010°50'815.5
2017-Jun-01 03:58N 40°04' E 010°47'815.4
2017-Jun-01 03:29N 40°11' E 010°44'815.6
2017-Jun-01 03:00N 40°19' E 010°42'815.5
2017-Jun-01 02:30N 40°26' E 010°39'815.2
2017-Jun-01 02:00N 40°33' E 010°36'815.1
2017-Jun-01 01:30N 40°40' E 010°33'815.1
2017-Jun-01 01:00N 40°48' E 010°30'915.1
2017-Jun-01 00:26N 40°56' E 010°26'615.0
2017-Jun-01 00:00N 41°02' E 010°24'714.9
2017-May-31 23:30N 41°09' E 010°21'815.0
2017-May-31 22:59N 41°16' E 010°18'715.1
2017-May-31 22:31N 41°23' E 010°15'815.0
2017-May-31 22:00N 41°31' E 010°12'714.8
2017-May-31 21:30N 41°37' E 010°08'815.1
2017-May-31 21:00N 41°45' E 010°05'815.0
2017-May-31 20:29N 41°52' E 010°02'815.3
2017-May-31 19:57N 41°60' E 009°59'715.3
2017-May-31 19:29N 42°07' E 009°56'715.1
2017-May-31 19:00N 42°14' E 009°53'915.1
2017-May-31 18:23N 42°23' E 009°49'615.0
2017-May-31 18:01N 42°28' E 009°47'815.1
2017-May-31 17:29N 42°35' E 009°44'715.0
2017-May-31 17:00N 42°42' E 009°41'714.9
2017-May-31 16:30N 42°50' E 009°39'714.8
2017-May-31 16:00N 42°57' E 009°37'714.8
2017-May-31 15:30N 43°04' E 009°35'714.9
2017-May-31 15:00N 43°11' E 009°32'1414.5
2017-May-31 14:00N 43°25' E 009°26'713.9
2017-May-31 13:31N 43°32' E 009°23'714.7
2017-May-31 13:00N 43°38' E 009°19'5 9.2
2017-May-31 12:30N 43°43' E 009°17'1 1.1
2017-May-31 12:00N 43°42' E 009°17'1 2.7
2017-May-31 11:30N 43°44' E 009°17'713.7
2017-May-31 11:00N 43°50' E 009°15'714.9
2017-May-31 10:31N 43°57' E 009°11'714.8
2017-May-31 10:00N 44°04' E 009°07'714.9
2017-May-31 09:31N 44°11' E 009°02'714.8
2017-May-31 09:01N 44°18' E 008°59'510.5
2017-May-31 08:30N 44°23' E 008°57'2 4.3
2017-May-31 08:00N 44°24' E 008°55'0 0.0
2017-May-31 07:27N 44°24' E 008°55'0 0.0
2017-May-31 07:00N 44°24' E 008°55'0 0.0
2017-May-31 06:30N 44°24' E 008°55'0 0.0
2017-May-31 06:00N 44°24' E 008°55'0 0.0
2017-May-31 05:30N 44°24' E 008°55'0 0.0
2017-May-31 05:00N 44°24' E 008°55'0 0.0
2017-May-31 04:30N 44°24' E 008°55'0 0.0
2017-May-31 04:00N 44°24' E 008°55'0 0.0
2017-May-31 03:30N 44°24' E 008°55'0 0.0
2017-May-31 03:00N 44°24' E 008°55'0 0.0
2017-May-31 02:30N 44°24' E 008°55'0 0.0
2017-May-31 02:00N 44°24' E 008°55'0 0.0
2017-May-31 01:30N 44°24' E 008°55'0 0.0
2017-May-31 01:00N 44°24' E 008°55'0 0.0
2017-May-31 00:30N 44°24' E 008°55'0 0.0
2017-May-30 23:57N 44°24' E 008°55'0 0.0
2017-May-30 23:21N 44°24' E 008°55'0 0.0
2017-May-30 22:57N 44°24' E 008°55'0 0.0
2017-May-30 22:27N 44°24' E 008°55'0 0.0
2017-May-30 21:57N 44°24' E 008°55'0 0.0
2017-May-30 21:30N 44°24' E 008°55'0 0.0
2017-May-30 21:00N 44°24' E 008°55'0 0.0
2017-May-30 20:27N 44°24' E 008°55'0 0.0
2017-May-30 20:00N 44°24' E 008°55'0 0.0
2017-May-30 19:27N 44°24' E 008°55'0 0.0
2017-May-30 19:00N 44°24' E 008°55'0 0.0
2017-May-30 18:27N 44°24' E 008°55'0 0.0
2017-May-30 17:57N 44°24' E 008°55'0 0.0
2017-May-30 17:30N 44°24' E 008°55'0 0.0
2017-May-30 17:00N 44°24' E 008°55'0 0.0
2017-May-30 16:30N 44°24' E 008°55'0 0.0
2017-May-30 16:00N 44°24' E 008°55'0 0.0
2017-May-30 15:30N 44°24' E 008°55'0 0.0
2017-May-30 14:57N 44°24' E 008°55'0 0.0
2017-May-30 14:00N 44°24' E 008°55'0 0.0
2017-May-30 13:30N 44°24' E 008°55'0 0.0
2017-May-30 13:00N 44°24' E 008°55'0 0.0
2017-May-30 12:30N 44°24' E 008°55'0 0.0
2017-May-30 12:00N 44°24' E 008°55'0 0.0
2017-May-30 11:30N 44°24' E 008°55'0 0.0
2017-May-30 11:00N 44°24' E 008°55'0 0.0
2017-May-30 10:30N 44°24' E 008°55'0 0.0
2017-May-30 09:57N 44°24' E 008°55'0 0.0
2017-May-30 09:21N 44°24' E 008°55'0 0.0
2017-May-30 08:57N 44°24' E 008°55'0 0.0
2017-May-30 08:24N 44°24' E 008°55'0 0.0
2017-May-30 07:54N 44°24' E 008°55'0 0.0
2017-May-30 07:27N 44°24' E 008°55'0 0.0
2017-May-30 06:54N 44°24' E 008°55'0 0.0
2017-May-30 06:24N 44°24' E 008°55'0 0.0
2017-May-30 05:57N 44°24' E 008°55'0 0.0
2017-May-30 05:27N 44°24' E 008°55'0 0.0
2017-May-30 04:57N 44°24' E 008°55'0 0.0
2017-May-30 04:27N 44°24' E 008°55'0 0.0
2017-May-30 03:57N 44°24' E 008°55'0 0.7
2017-May-30 03:30N 44°24' E 008°55'3 6.6
2017-May-30 03:00N 44°22' E 008°58'4 8.6
2017-May-30 02:31N 44°17' E 008°59'815.2
2017-May-30 02:01N 44°13' E 008°50'815.1
2017-May-30 01:30N 44°07' E 008°43'714.1
2017-May-30 01:01N 44°01' E 008°40'714.2
2017-May-30 00:30N 43°54' E 008°42'714.0
2017-May-30 00:01N 43°48' E 008°38'714.1
2017-May-29 23:31N 43°42' E 008°32'714.4
2017-May-29 23:01N 43°36' E 008°26'714.3
2017-May-29 22:30N 43°30' E 008°21'714.3
2017-May-29 22:01N 43°24' E 008°15'714.4
2017-May-29 21:31N 43°18' E 008°09'714.1
2017-May-29 21:01N 43°13' E 008°02'714.1
2017-May-29 20:30N 43°09' E 007°55'714.2
2017-May-29 20:00N 43°05' E 007°47'714.5
2017-May-29 19:30N 43°00' E 007°39'714.6
2017-May-29 19:00N 42°56' E 007°31'714.4
2017-May-29 18:30N 42°52' E 007°23'714.5
2017-May-29 18:00N 42°47' E 007°15'714.6
2017-May-29 17:30N 42°43' E 007°08'714.5
2017-May-29 17:01N 42°38' E 007°00'714.3
2017-May-29 16:30N 42°33' E 006°53'714.2
2017-May-29 16:00N 42°29' E 006°45'1014.1
2017-May-29 15:17N 42°23' E 006°34'614.1
2017-May-29 14:53N 42°20' E 006°28'1314.4
2017-May-29 14:00N 42°12' E 006°14'815.5
2017-May-29 13:30N 42°07' E 006°06'815.4
2017-May-29 13:00N 42°03' E 005°57'815.3
2017-May-29 12:31N 41°58' E 005°49'714.8
2017-May-29 12:00N 41°53' E 005°42'713.3
2017-May-29 11:30N 41°49' E 005°35'713.3
2017-May-29 11:00N 41°45' E 005°28'713.1
2017-May-29 10:30N 41°41' E 005°20'612.9
2017-May-29 10:00N 41°37' E 005°14'713.1
2017-May-29 09:29N 41°33' E 005°06'1113.0
2017-May-29 08:41N 41°27' E 004°55'213.1
2017-May-29 08:30N 41°26' E 004°52'2512.8
2017-May-29 06:34N 41°11' E 004°26'112.9
2017-May-29 06:30N 41°10' E 004°25'712.8
2017-May-29 05:58N 41°06' E 004°18'612.9
2017-May-29 05:30N 41°02' E 004°12'912.1
2017-May-29 04:45N 40°57' E 004°02'713.1
2017-May-29 04:14N 40°53' E 003°55'315.6
2017-May-29 04:00N 40°50' E 003°52'1015.6
2017-May-29 03:21N 40°44' E 003°41'515.2
2017-May-29 03:00N 40°41' E 003°36'815.1
2017-May-29 02:30N 40°36' E 003°28'815.3
2017-May-29 02:01N 40°32' E 003°20'815.4
2017-May-29 01:31N 40°27' E 003°12'815.5
2017-May-29 01:00N 40°22' E 003°04'815.5
2017-May-29 00:30N 40°18' E 002°55'715.1
2017-May-29 00:00N 40°13' E 002°48'815.0
2017-May-28 23:30N 40°08' E 002°40'815.5
2017-May-28 23:00N 40°04' E 002°32'815.7
2017-May-28 22:30N 39°59' E 002°24'815.8
2017-May-28 22:00N 39°54' E 002°15'815.8
2017-May-28 21:31N 39°49' E 002°07'815.6
2017-May-28 21:00N 39°45' E 001°59'815.4
2017-May-28 20:30N 39°40' E 001°51'815.4
2017-May-28 20:00N 39°35' E 001°44'815.4
2017-May-28 19:30N 39°30' E 001°36'815.3
2017-May-28 19:00N 39°25' E 001°28'815.5
2017-May-28 18:30N 39°21' E 001°20'815.7
2017-May-28 18:00N 39°16' E 001°12'815.8
2017-May-28 17:30N 39°11' E 001°03'815.7
2017-May-28 16:58N 39°06' E 000°55'1915.3
2017-May-28 15:46N 38°53' E 000°39'415.1
2017-May-28 15:30N 38°50' E 000°35'5814.6
2017-May-28 11:33N 38°02' W 000°06'114.9
2017-May-28 11:30N 38°02' W 000°07'914.9
2017-May-28 10:54N 37°54' W 000°13'814.8
2017-May-28 10:21N 37°47' W 000°19'514.7
2017-May-28 10:00N 37°43' W 000°22'714.8
2017-May-28 09:30N 37°37' W 000°27'714.6
2017-May-28 09:00N 37°31' W 000°33'714.4
2017-May-28 08:30N 37°27' W 000°40'714.4
2017-May-28 08:00N 37°22' W 000°47'714.6
2017-May-28 07:30N 37°17' W 000°53'714.2
2017-May-28 07:00N 37°12' W 001°00'20714.3
2017-May-27 16:34N 36°01' W 005°02'516.8
2017-May-27 16:16N 36°01' W 005°08'416.9
2017-May-27 16:01N 36°00' W 005°13'816.6
2017-May-27 15:30N 35°58' W 005°23'7 9.4
2017-May-27 14:48N 35°54' W 005°30'  

Dump ship's entire track history